createdAt,value
2018-08-23T00:01:15.263Z,8.68
2018-08-23T00:03:43.328Z,9.40
2018-08-23T00:06:11.296Z,9.20
2018-08-23T00:08:43.589Z,9.13
2018-08-23T00:11:11.604Z,9.88
2018-08-23T00:13:43.860Z,9.43
2018-08-23T00:16:12.046Z,10.20
2018-08-23T00:18:40.082Z,11.28
2018-08-23T00:21:12.402Z,9.40
2018-08-23T00:23:40.852Z,10.43
2018-08-23T00:26:09.604Z,10.35
2018-08-23T00:28:37.659Z,11.10
2018-08-23T00:31:05.701Z,11.30
2018-08-23T00:33:33.731Z,11.53
2018-08-23T00:36:01.784Z,11.50
2018-08-23T00:38:29.808Z,11.47
2018-08-23T00:40:57.840Z,11.80
2018-08-23T00:43:25.895Z,10.85
2018-08-23T00:45:53.967Z,11.48
2018-08-23T00:48:21.995Z,14.40
2018-08-23T00:50:53.460Z,12.20
2018-08-23T00:53:21.472Z,13.03
2018-08-23T00:56:25.412Z,12.65
2018-08-23T00:58:58.996Z,12.20
2018-08-23T01:01:27.023Z,12.35
2018-08-23T01:03:55.060Z,12.68
2018-08-23T01:06:25.216Z,13.30
2018-08-23T01:08:53.248Z,13.95
2018-08-23T01:11:21.304Z,14.30
2018-08-23T01:13:49.335Z,14.18
2018-08-23T01:16:17.375Z,14.80
2018-08-23T01:18:45.395Z,15.65
2018-08-23T01:21:13.443Z,15.00
2018-08-23T01:23:42.679Z,16.60
2018-08-23T01:26:10.709Z,16.02
2018-08-23T01:28:38.720Z,17.30
2018-08-23T01:31:23.518Z,17.12
2018-08-23T01:33:54.010Z,18.60
2018-08-23T01:36:28.537Z,19.87
2018-08-23T01:38:56.589Z,19.62
2018-08-23T01:41:24.617Z,20.77
2018-08-23T01:43:52.655Z,21.23
2018-08-23T01:46:22.008Z,21.65
2018-08-23T01:48:53.033Z,21.55
2018-08-23T01:51:21.276Z,20.92
2018-08-23T01:53:49.420Z,20.92
2018-08-23T01:56:18.088Z,20.37
2018-08-23T01:58:46.103Z,20.90
2018-08-23T02:01:15.432Z,23.87
2018-08-23T02:03:43.807Z,23.70
2018-08-23T02:06:11.835Z,24.70
2018-08-23T02:08:39.872Z,26.30
2018-08-23T02:11:07.937Z,27.35
2018-08-23T02:13:35.972Z,27.55
2018-08-23T02:16:04.475Z,30.40
2018-08-23T02:18:33.260Z,30.68
2018-08-23T02:21:09.095Z,28.62
2018-08-23T02:23:45.852Z,30.15
2018-08-23T02:26:14.251Z,31.10
2018-08-23T02:28:43.844Z,30.55
2018-08-23T02:31:11.901Z,33.02
2018-08-23T02:33:39.965Z,34.30
2018-08-23T02:36:22.389Z,35.80
2018-08-23T02:38:56.742Z,34.83
2018-08-23T02:41:24.763Z,36.68
2018-08-23T02:43:52.796Z,36.68
2018-08-23T02:46:20.832Z,36.50
2018-08-23T02:48:48.894Z,36.48
2018-08-23T02:51:16.945Z,36.23
2018-08-23T02:53:46.180Z,36.70
2018-08-23T02:56:17.224Z,37.48
2018-08-23T02:58:57.959Z,38.55
2018-08-23T03:01:28.996Z,39.27
2018-08-23T03:04:19.532Z,38.70
2018-08-23T03:06:52.623Z,38.48
2018-08-23T03:09:22.734Z,38.40
2018-08-23T03:11:51.828Z,39.00
2018-08-23T03:14:20.915Z,39.53
2018-08-23T03:17:28.124Z,39.83
2018-08-23T03:20:06.011Z,39.53
2018-08-23T03:22:34.802Z,39.48
2018-08-23T03:25:18.749Z,41.60
2018-08-23T03:27:46.804Z,39.60
2018-08-23T03:30:16.107Z,39.83
2018-08-23T03:32:44.124Z,42.50
2018-08-23T03:35:12.155Z,41.53
2018-08-23T03:37:40.202Z,41.40
2018-08-23T03:40:09.615Z,40.00
2018-08-23T03:42:37.660Z,40.23
2018-08-23T03:45:06.738Z,40.40
2018-08-23T03:47:40.309Z,39.75
2018-08-23T03:50:09.287Z,40.50
2018-08-23T03:52:38.323Z,36.40
2018-08-23T03:55:07.401Z,40.70
2018-08-23T03:57:40.833Z,40.83
2018-08-23T04:00:08.887Z,42.10
2018-08-23T04:02:36.925Z,41.85
2018-08-23T04:05:12.333Z,43.65
2018-08-23T04:07:41.241Z,43.55
2018-08-23T04:10:09.311Z,45.60
2018-08-23T04:12:39.223Z,45.50
2018-08-23T04:15:20.127Z,44.67
2018-08-23T04:17:48.888Z,44.58
2018-08-23T04:20:17.051Z,43.95
2018-08-23T04:22:45.102Z,43.15
2018-08-23T04:25:13.164Z,41.18
2018-08-23T04:27:41.209Z,41.85
2018-08-23T04:30:09.761Z,44.05
2018-08-23T04:32:45.150Z,46.85
2018-08-23T04:35:22.176Z,46.03
2018-08-23T04:37:50.747Z,48.80
2018-08-23T04:40:18.924Z,47.80
2018-08-23T04:42:47.109Z,48.90
2018-08-23T04:45:20.608Z,51.83
2018-08-23T04:48:08.640Z,51.30
2018-08-23T04:50:37.849Z,51.70
2018-08-23T04:53:05.899Z,49.38
2018-08-23T04:55:33.933Z,51.20
2018-08-23T04:58:02.770Z,49.60
2018-08-23T05:00:31.252Z,50.40
2018-08-23T05:02:59.337Z,47.08
2018-08-23T05:05:27.348Z,48.68
2018-08-23T05:07:55.392Z,47.27
2018-08-23T05:10:24.191Z,44.77
2018-08-23T05:12:52.232Z,45.28
2018-08-23T05:15:20.251Z,47.00
2018-08-23T05:17:48.281Z,45.48
2018-08-23T05:20:16.348Z,45.25
2018-08-23T05:22:56.058Z,44.10
2018-08-23T05:25:24.860Z,45.48
2018-08-23T05:28:09.000Z,44.23
2018-08-23T05:30:37.028Z,42.17
2018-08-23T05:33:10.468Z,41.90
2018-08-23T05:35:38.693Z,41.00
2018-08-23T05:38:07.681Z,42.33
2018-08-23T05:40:41.666Z,44.47
2018-08-23T05:43:09.731Z,46.33
2018-08-23T05:45:43.177Z,50.15
2018-08-23T05:48:31.751Z,49.15
2018-08-23T05:51:04.864Z,56.13
2018-08-23T05:53:32.900Z,52.98
2018-08-23T05:56:01.630Z,55.90
2018-08-23T05:58:31.100Z,56.50
2018-08-23T06:00:59.163Z,58.68
2018-08-23T06:03:27.200Z,59.63
2018-08-23T06:05:56.567Z,59.77
2018-08-23T06:08:24.679Z,61.15
2018-08-23T06:10:58.155Z,62.95
2018-08-23T06:13:26.200Z,64.33
2018-08-23T06:15:56.314Z,64.62
2018-08-23T06:18:25.299Z,60.80
2018-08-23T06:20:53.352Z,57.88
2018-08-23T06:23:21.747Z,61.92
2018-08-23T06:25:50.303Z,59.70
2018-08-23T06:28:22.049Z,60.00
2018-08-23T06:30:50.107Z,59.38
2018-08-23T06:33:35.322Z,77.60
2018-08-23T06:36:03.507Z,63.20
2018-08-23T06:38:32.637Z,63.92
2018-08-23T06:41:02.619Z,56.13
2018-08-23T06:43:31.236Z,54.05
2018-08-23T06:46:00.033Z,55.45
2018-08-23T06:48:28.020Z,56.20
2018-08-23T06:50:57.166Z,52.93
2018-08-23T06:53:33.157Z,53.08
2018-08-23T06:56:01.529Z,49.37
2018-08-23T06:58:29.569Z,49.53
2018-08-23T07:00:57.600Z,49.77
2018-08-23T07:03:25.652Z,47.48
2018-08-23T07:05:53.722Z,45.95
2018-08-23T07:08:23.040Z,82.25
2018-08-23T07:11:02.231Z,63.40
2018-08-23T07:13:30.316Z,62.45
2018-08-23T07:16:01.132Z,52.30
2018-08-23T07:18:30.851Z,40.67
2018-08-23T07:20:58.892Z,38.83
2018-08-23T07:23:30.360Z,38.28
2018-08-23T07:25:58.405Z,36.68
2018-08-23T07:28:26.453Z,38.95
2018-08-23T07:30:54.489Z,36.57
2018-08-23T07:33:22.675Z,38.70
2018-08-23T07:36:00.959Z,39.92
2018-08-23T07:38:28.964Z,39.40
2018-08-23T07:40:57.000Z,39.75
2018-08-23T07:43:25.032Z,41.37
2018-08-23T07:45:53.047Z,52.35
2018-08-23T07:48:21.093Z,39.27
2018-08-23T07:50:49.127Z,40.37
2018-08-23T07:53:18.348Z,189.77
2018-08-23T07:55:46.267Z,90.00
2018-08-23T07:58:14.299Z,36.17
2018-08-23T08:00:43.477Z,35.63
2018-08-23T08:03:12.777Z,36.25
2018-08-23T08:05:43.952Z,39.10
2018-08-23T08:08:12.923Z,37.83
2018-08-23T08:10:42.319Z,47.93
2018-08-23T08:13:10.368Z,33.85
2018-08-23T08:15:38.408Z,36.17
2018-08-23T08:18:16.627Z,35.05
2018-08-23T08:20:50.293Z,34.83
2018-08-23T08:23:18.328Z,66.67
2018-08-23T08:25:46.477Z,41.08
2018-08-23T08:28:15.381Z,39.33
2018-08-23T08:30:44.593Z,39.58
2018-08-23T08:33:16.637Z,40.50
2018-08-23T08:35:45.339Z,49.03
2018-08-23T08:38:13.716Z,40.85
2018-08-23T08:40:41.748Z,38.35
2018-08-23T08:43:09.767Z,38.75
2018-08-23T08:45:37.787Z,39.03
2018-08-23T08:48:19.371Z,37.55
2018-08-23T08:51:03.220Z,38.10
2018-08-23T08:53:32.348Z,40.28
2018-08-23T08:56:00.380Z,37.40
2018-08-23T08:58:28.424Z,39.43
2018-08-23T09:00:56.460Z,36.93
2018-08-23T09:03:25.248Z,37.55
2018-08-23T09:05:53.292Z,41.20
2018-08-23T09:08:21.328Z,41.90
2018-08-23T09:10:49.355Z,39.40
2018-08-23T09:13:17.392Z,34.83
2018-08-23T09:15:48.474Z,56.30
2018-08-23T09:18:22.826Z,37.38
2018-08-23T09:20:54.424Z,37.95
2018-08-23T09:23:23.480Z,35.80
2018-08-23T09:25:56.256Z,34.53
2018-08-23T09:28:24.494Z,33.60
2018-08-23T09:30:52.685Z,34.90
2018-08-23T09:33:23.401Z,34.63
2018-08-23T09:35:51.676Z,33.02
2018-08-23T09:38:19.831Z,33.05
2018-08-23T09:40:48.033Z,31.80
2018-08-23T09:43:16.068Z,32.65
2018-08-23T09:45:44.200Z,30.23
2018-08-23T09:48:12.263Z,27.77
2018-08-23T09:50:40.354Z,27.05
2018-08-23T09:53:13.905Z,27.37
2018-08-23T09:55:42.181Z,29.15
2018-08-23T09:58:15.675Z,27.75
2018-08-23T10:01:47.955Z,29.75
2018-08-23T10:05:21.988Z,29.47
2018-08-23T10:07:55.499Z,30.50
2018-08-23T10:10:28.995Z,30.48
2018-08-23T10:13:02.751Z,31.50
2018-08-23T10:15:36.304Z,32.50
2018-08-23T10:18:10.237Z,30.35
2018-08-23T10:20:44.438Z,34.10
2018-08-23T10:23:16.353Z,32.42
2018-08-23T10:25:45.860Z,34.27
2018-08-23T10:28:15.174Z,31.93
2018-08-23T10:30:43.436Z,30.68
2018-08-23T10:33:11.492Z,32.87
2018-08-23T10:35:43.780Z,32.20
2018-08-23T10:38:13.910Z,31.82
2018-08-23T10:40:42.513Z,30.88
2018-08-23T10:43:10.668Z,33.60
2018-08-23T10:45:38.697Z,32.20
2018-08-23T10:48:12.140Z,30.08
2018-08-23T10:50:40.179Z,29.02
2018-08-23T10:53:08.188Z,29.42
2018-08-23T10:55:36.229Z,28.02
2018-08-23T10:58:04.259Z,28.40
2018-08-23T11:00:32.293Z,29.10
2018-08-23T11:03:00.339Z,29.05
2018-08-23T11:05:28.397Z,28.20
2018-08-23T11:08:02.059Z,29.60
2018-08-23T11:10:35.540Z,29.05
2018-08-23T11:13:08.856Z,27.65
2018-08-23T11:15:36.913Z,29.80
2018-08-23T11:19:08.151Z,28.87
2018-08-23T11:21:36.233Z,29.27
2018-08-23T11:24:04.280Z,29.82
2018-08-23T11:26:32.349Z,28.00
2018-08-23T11:29:00.395Z,27.15
2018-08-23T11:31:28.988Z,27.32
2018-08-23T11:33:57.040Z,28.23
2018-08-23T11:36:25.095Z,25.03
2018-08-23T11:38:53.117Z,26.80
2018-08-23T11:41:21.152Z,26.47
2018-08-23T11:43:49.445Z,26.70
2018-08-23T11:46:18.850Z,26.82
2018-08-23T11:48:47.566Z,27.07
2018-08-23T11:51:16.432Z,27.30
2018-08-23T11:53:45.232Z,26.93
2018-08-23T11:56:13.159Z,27.10
2018-08-23T11:58:41.689Z,25.48
2018-08-23T12:01:11.965Z,26.93
2018-08-23T12:03:40.451Z,26.95
2018-08-23T12:06:09.953Z,28.62
2018-08-23T12:08:38.005Z,29.23
2018-08-23T12:11:06.049Z,28.20
2018-08-23T12:13:34.084Z,31.50
2018-08-23T12:16:03.215Z,31.52
2018-08-23T12:18:35.328Z,30.32
2018-08-23T12:21:03.510Z,29.13
2018-08-23T12:23:31.607Z,32.40
2018-08-23T12:26:00.053Z,30.80
2018-08-23T12:28:33.321Z,30.82
2018-08-23T12:31:01.385Z,29.27
2018-08-23T12:33:29.453Z,27.95
2018-08-23T12:35:57.565Z,28.70
2018-08-23T12:38:31.051Z,29.57
2018-08-23T12:41:04.500Z,31.20
2018-08-23T12:43:52.004Z,29.12
2018-08-23T12:46:20.040Z,29.65
2018-08-23T12:48:48.337Z,29.60
2018-08-23T12:51:16.507Z,28.93
2018-08-23T12:53:44.552Z,28.60
2018-08-23T12:56:12.624Z,27.83
2018-08-23T12:58:40.699Z,27.87
2018-08-23T13:01:08.736Z,27.83
2018-08-23T13:03:36.787Z,27.30
2018-08-23T13:06:04.808Z,24.82
2018-08-23T13:08:32.847Z,21.62
2018-08-23T13:11:00.948Z,21.50
2018-08-23T13:13:28.988Z,21.05
2018-08-23T13:15:57.040Z,20.85
2018-08-23T13:18:25.089Z,21.05
2018-08-23T13:20:53.128Z,19.95
2018-08-23T13:23:21.157Z,22.42
2018-08-23T13:25:56.371Z,21.20
2018-08-23T13:28:25.144Z,20.00
2018-08-23T13:30:53.653Z,20.90
2018-08-23T13:33:21.972Z,20.88
2018-08-23T13:35:50.081Z,20.02
2018-08-23T13:38:18.599Z,19.02
2018-08-23T13:40:46.588Z,20.00
2018-08-23T13:43:14.661Z,18.77
2018-08-23T13:45:42.730Z,19.73
2018-08-23T13:48:10.781Z,18.40
2018-08-23T13:50:38.847Z,18.50
2018-08-23T13:53:06.899Z,19.42
2018-08-23T13:55:34.919Z,17.50
2018-08-23T13:58:03.809Z,17.30
2018-08-23T14:00:38.776Z,18.42
2018-08-23T14:03:07.584Z,16.70
2018-08-23T14:05:35.868Z,15.80
2018-08-23T14:08:03.863Z,14.95
2018-08-23T14:10:31.915Z,16.50
2018-08-23T14:12:59.945Z,17.47
2018-08-23T14:15:33.596Z,16.30
2018-08-23T14:18:01.628Z,17.10
2018-08-23T14:20:29.733Z,19.25
2018-08-23T14:22:57.753Z,19.65
2018-08-23T14:25:25.789Z,16.50
2018-08-23T14:27:53.991Z,19.10
2018-08-23T14:30:22.218Z,19.40
2018-08-23T14:32:50.307Z,20.90
2018-08-23T14:35:18.392Z,22.70
2018-08-23T14:37:46.411Z,24.87
2018-08-23T14:40:14.508Z,26.07
2018-08-23T14:42:42.488Z,27.90
2018-08-23T14:45:10.535Z,25.55
2018-08-23T14:47:44.038Z,25.70
2018-08-23T14:50:12.052Z,29.37
2018-08-23T14:52:40.084Z,28.10
2018-08-23T14:55:08.117Z,27.60
2018-08-23T14:57:37.000Z,27.35
2018-08-23T15:00:05.045Z,26.15
2018-08-23T15:02:33.071Z,26.62
2018-08-23T15:05:01.137Z,25.25
2018-08-23T15:07:29.165Z,25.68
2018-08-23T15:09:57.517Z,24.80
2018-08-23T15:12:25.573Z,24.77
2018-08-23T15:14:53.637Z,23.30
2018-08-23T15:17:21.732Z,21.77
2018-08-23T15:19:49.777Z,20.07
2018-08-23T15:22:17.805Z,18.07
2018-08-23T15:24:45.832Z,19.20
2018-08-23T15:27:13.976Z,19.77
2018-08-23T15:29:41.957Z,20.00
2018-08-23T15:32:09.997Z,19.50
2018-08-23T15:34:38.028Z,16.70
2018-08-23T15:37:06.057Z,17.65
2018-08-23T15:39:34.152Z,16.85
2018-08-23T15:42:02.124Z,16.57
2018-08-23T15:44:30.148Z,15.32
2018-08-23T15:46:58.183Z,17.25
2018-08-23T15:49:26.239Z,16.95
2018-08-23T15:51:54.268Z,14.53
2018-08-23T15:54:22.289Z,15.85
2018-08-23T15:56:50.317Z,15.50
2018-08-23T15:59:18.357Z,16.20
2018-08-23T16:01:46.492Z,15.85
2018-08-23T16:04:14.515Z,15.60
2018-08-23T16:06:42.561Z,16.60
2018-08-23T16:09:11.848Z,18.15
2018-08-23T16:11:39.904Z,17.98
2018-08-23T16:14:08.404Z,20.45
2018-08-23T16:16:41.939Z,24.55
2018-08-23T16:19:12.388Z,26.20
2018-08-23T16:21:41.229Z,22.55
2018-08-23T16:24:09.256Z,24.40
2018-08-23T16:26:42.805Z,23.38
2018-08-23T16:29:10.828Z,23.62
2018-08-23T16:31:38.872Z,22.98
2018-08-23T16:34:06.923Z,22.82
2018-08-23T16:36:34.953Z,22.03
2018-08-23T16:39:03.496Z,21.30
2018-08-23T16:41:31.524Z,21.80
2018-08-23T16:43:59.560Z,20.10
2018-08-23T16:46:27.599Z,21.12
2018-08-23T16:48:55.636Z,18.87
2018-08-23T16:51:23.669Z,19.17
2018-08-23T16:53:51.728Z,18.27
2018-08-23T16:56:19.780Z,20.10
2018-08-23T16:58:47.823Z,19.57
2018-08-23T17:01:15.864Z,18.52
2018-08-23T17:03:48.143Z,17.60
2018-08-23T17:06:16.369Z,19.05
2018-08-23T17:08:44.412Z,19.20
2018-08-23T17:11:12.456Z,19.60
2018-08-23T17:13:40.515Z,20.88
2018-08-23T17:16:14.022Z,20.32
2018-08-23T17:18:42.040Z,20.27
2018-08-23T17:21:10.117Z,20.90
2018-08-23T17:23:38.148Z,19.35
2018-08-23T17:26:06.185Z,21.42
2018-08-23T17:28:34.263Z,22.00
2018-08-23T17:31:02.802Z,23.32
2018-08-23T17:33:31.363Z,22.52
2018-08-23T17:35:59.452Z,23.12
2018-08-23T17:38:29.013Z,21.12
2018-08-23T17:40:57.008Z,22.67
2018-08-23T17:43:25.286Z,22.40
2018-08-23T17:45:53.349Z,20.82
2018-08-23T17:48:21.647Z,23.18
2018-08-23T17:50:49.687Z,22.85
2018-08-23T17:53:17.737Z,21.93
2018-08-23T17:55:45.816Z,21.65
2018-08-23T17:58:13.840Z,21.62
2018-08-23T18:00:41.863Z,20.12
2018-08-23T18:03:09.933Z,22.20
2018-08-23T18:05:37.968Z,21.02
2018-08-23T18:08:06.032Z,22.58
2018-08-23T18:10:34.164Z,21.42
2018-08-23T18:13:02.250Z,21.30
2018-08-23T18:15:35.688Z,21.10
2018-08-23T18:18:03.736Z,21.52
2018-08-23T18:20:31.859Z,21.37
2018-08-23T18:22:59.832Z,20.60
2018-08-23T18:25:27.887Z,19.90
2018-08-23T18:27:55.880Z,21.07
2018-08-23T18:30:23.925Z,21.30
2018-08-23T18:32:51.967Z,21.00
2018-08-23T18:35:20.017Z,21.02
2018-08-23T18:37:48.056Z,23.12
2018-08-23T18:40:16.092Z,22.90
2018-08-23T18:42:44.126Z,23.18
2018-08-23T18:45:12.177Z,23.52
2018-08-23T18:47:40.231Z,23.25
2018-08-23T18:50:08.309Z,22.10
2018-08-23T18:52:36.357Z,22.00
2018-08-23T18:55:04.418Z,22.48
2018-08-23T18:57:32.460Z,22.48
2018-08-23T19:00:00.612Z,22.62
2018-08-23T19:02:28.570Z,21.85
2018-08-23T19:04:56.599Z,22.48
2018-08-23T19:07:30.116Z,22.20
2018-08-23T19:09:59.659Z,22.48
2018-08-23T19:12:28.419Z,23.25
2018-08-23T19:14:56.918Z,24.82
2018-08-23T19:17:31.837Z,24.75
2018-08-23T19:19:59.908Z,24.32
2018-08-23T19:22:27.966Z,24.32
2018-08-23T19:24:56.154Z,23.62
2018-08-23T19:27:24.194Z,25.57
2018-08-23T19:29:52.227Z,23.70
2018-08-23T19:32:20.277Z,24.18
2018-08-23T19:34:48.307Z,24.50
2018-08-23T19:37:16.352Z,24.98
2018-08-23T19:39:44.395Z,24.82
2018-08-23T19:42:12.544Z,24.10
2018-08-23T19:44:46.174Z,24.50
2018-08-23T19:47:19.664Z,24.70
2018-08-23T19:49:54.825Z,24.70
2018-08-23T19:52:22.972Z,25.62
2018-08-23T19:54:51.444Z,24.60
2018-08-23T19:57:19.493Z,25.05
2018-08-23T19:59:47.580Z,24.65
2018-08-23T20:02:15.604Z,24.87
2018-08-23T20:04:46.216Z,24.52
2018-08-23T20:07:22.859Z,25.23
2018-08-23T20:09:50.925Z,25.40
2018-08-23T20:12:18.979Z,25.05
2018-08-23T20:14:47.333Z,26.00
2018-08-23T20:17:15.363Z,26.50
2018-08-23T20:19:44.051Z,26.00
2018-08-23T20:22:13.891Z,25.50
2018-08-23T20:24:41.940Z,25.92
2018-08-23T20:27:09.996Z,26.05
2018-08-23T20:29:38.049Z,25.85
2018-08-23T20:32:06.093Z,25.48
2018-08-23T20:34:34.128Z,24.90
2018-08-23T20:37:02.170Z,26.02
2018-08-23T20:39:30.323Z,24.67
2018-08-23T20:41:58.257Z,25.20
2018-08-23T20:44:26.296Z,24.23
2018-08-23T20:46:54.383Z,23.98
2018-08-23T20:49:22.337Z,24.18
2018-08-23T20:51:50.372Z,26.45
2018-08-23T20:54:18.396Z,23.90
2018-08-23T20:56:46.419Z,24.52
2018-08-23T20:59:14.449Z,24.60
2018-08-23T21:01:42.489Z,25.70
2018-08-23T21:04:10.527Z,23.80
2018-08-23T21:06:38.536Z,23.97
2018-08-23T21:09:09.016Z,24.37
2018-08-23T21:11:37.296Z,23.95
2018-08-23T21:14:05.344Z,24.60
2018-08-23T21:16:33.388Z,24.10
2018-08-23T21:19:01.516Z,25.30
2018-08-23T21:21:29.557Z,22.77
2018-08-23T21:23:57.582Z,22.17
2018-08-23T21:26:25.608Z,24.15
2018-08-23T21:28:53.632Z,23.27
2018-08-23T21:31:21.660Z,22.50
2018-08-23T21:33:49.689Z,22.05
2018-08-23T21:36:17.745Z,23.80
2018-08-23T21:38:45.776Z,21.90
2018-08-23T21:41:13.864Z,20.10
2018-08-23T21:43:41.907Z,19.73
2018-08-23T21:46:09.934Z,19.00
2018-08-23T21:48:37.978Z,19.95
2018-08-23T21:51:06.024Z,18.92
2018-08-23T21:53:34.096Z,18.48
2018-08-23T21:56:02.081Z,18.52
2018-08-23T21:58:30.092Z,18.52
2018-08-23T22:01:03.770Z,17.80
2018-08-23T22:03:31.780Z,17.60
2018-08-23T22:05:59.834Z,17.50
2018-08-23T22:08:27.866Z,16.97
2018-08-23T22:10:56.001Z,16.45
2018-08-23T22:13:24.024Z,15.85
2018-08-23T22:15:52.048Z,16.00
2018-08-23T22:18:20.228Z,15.80
2018-08-23T22:20:48.271Z,16.20
2018-08-23T22:23:16.332Z,16.05
2018-08-23T22:25:44.383Z,16.87
2018-08-23T22:28:12.433Z,16.60
2018-08-23T22:30:41.292Z,17.40
2018-08-23T22:33:10.597Z,18.32
2018-08-23T22:35:38.643Z,17.80
2018-08-23T22:38:06.840Z,19.27
2018-08-23T22:40:35.003Z,18.25
2018-08-23T22:43:03.020Z,17.80
2018-08-23T22:45:31.064Z,18.23
2018-08-23T22:47:59.091Z,18.17
2018-08-23T22:50:27.177Z,19.40
2018-08-23T22:52:55.366Z,19.35
2018-08-23T22:55:23.389Z,19.67
2018-08-23T22:57:51.496Z,19.02
2018-08-23T23:00:23.772Z,18.57
2018-08-23T23:02:52.124Z,20.30
2018-08-23T23:05:20.258Z,20.90
2018-08-23T23:07:48.213Z,20.70
2018-08-23T23:10:16.236Z,20.08
2018-08-23T23:12:44.265Z,20.62
2018-08-23T23:15:17.736Z,20.30
2018-08-23T23:17:45.804Z,19.90
2018-08-23T23:20:13.840Z,20.25
2018-08-23T23:22:41.871Z,19.55
2018-08-23T23:25:09.921Z,20.60
2018-08-23T23:27:38.015Z,20.92
2018-08-23T23:30:06.440Z,20.95
2018-08-23T23:32:34.479Z,22.15
2018-08-23T23:35:02.548Z,22.60
2018-08-23T23:37:30.591Z,23.32
2018-08-23T23:39:58.646Z,22.58
2018-08-23T23:42:26.688Z,21.70
2018-08-23T23:44:54.732Z,22.20
2018-08-23T23:47:22.771Z,23.15
2018-08-23T23:49:50.788Z,22.90
2018-08-23T23:52:18.823Z,24.23
2018-08-23T23:54:46.857Z,24.00
2018-08-23T23:57:14.897Z,23.77
2018-08-23T23:59:42.928Z,25.15
